Time;durP1;ratioP1;P1;durP2;ratioP2;P2;SDS_P1;SDS_P2;PMS_P1;PMS_P2;Temp;Humidity;BMP_temperature;BMP_pressure;BME280_temperature;BME280_humidity;BME280_pressure;Samples;Min_cycle;Max_cycle;Signal;HPM_P1;HPM_P2
2022/10/11 00:01:51;;;;;;;;;;;16.70;99.90;;;;;;5074959;28;19912;-65
2022/10/11 00:04:16;;;;;;;;;;;16.70;99.90;;;;;;5075056;28;20294;-64
2022/10/11 00:06:42;;;;;;;;;;;16.70;99.90;;;;;;5074923;28;19961;-64
2022/10/11 00:09:10;;;;;;;;;;;16.60;99.90;;;;;;5074942;28;19911;-65
2022/10/11 00:11:36;;;;;;;;;;;16.60;99.90;;;;;;5074592;28;19904;-64
2022/10/11 00:14:02;;;;;;;;;;;16.70;99.90;;;;;;5074654;28;19904;-64
2022/10/11 00:16:27;;;;;;;;;;;16.70;99.90;;;;;;5074295;28;19908;-64
2022/10/11 00:18:53;;;;;;;;;;;16.60;99.90;;;;;;5074598;28;19958;-64
2022/10/11 00:21:19;;;;;;;;;;;16.60;99.90;;;;;;5074475;28;20381;-65
2022/10/11 00:23:46;;;;;;;;;;;16.60;99.90;;;;;;5073205;28;19928;-65
2022/10/11 00:26:12;;;;;;;;;;;16.60;99.90;;;;;;5074440;28;19912;-65
2022/10/11 00:28:38;;;;;;;;;;;16.60;99.90;;;;;;5074788;28;19905;-65
2022/10/11 00:31:07;;;;;;;;;;;16.60;99.90;;;;;;5074199;28;19910;-65
2022/10/11 00:33:33;;;;;;;;;;;16.60;99.90;;;;;;5074562;28;19908;-65
2022/10/11 00:35:59;;;;;;;;;;;16.60;99.90;;;;;;5074390;28;19904;-65
2022/10/11 00:38:25;;;;;;;;;;;16.60;99.90;;;;;;5074293;28;19915;-65
2022/10/11 00:40:50;;;;;;;;;;;16.60;99.90;;;;;;5072914;28;19912;-65
2022/10/11 00:43:17;;;;;;;;;;;16.60;99.90;;;;;;5074502;28;19949;-65
2022/10/11 00:45:51;;;;;;;;;;;16.60;99.90;;;;;;5073793;28;19930;-65
2022/10/11 00:48:38;;;;;;;;;;;16.60;99.90;;;;;;5074148;28;19912;-65
2022/10/11 00:51:06;;;;;;;;;;;16.50;99.90;;;;;;5074078;28;20282;-65
2022/10/11 00:53:32;;;;;;;;;;;16.50;99.90;;;;;;5074229;28;19908;-66
2022/10/11 00:56:00;;;;;;;;;;;16.50;99.90;;;;;;5074010;28;19930;-65
2022/10/11 00:58:25;;;;;;;;;;;16.50;99.90;;;;;;5074148;28;19916;-65
2022/10/11 01:00:52;;;;;;;;;;;16.50;99.90;;;;;;5073375;28;20263;-65
2022/10/11 01:03:20;;;;;;;;;;;16.60;99.90;;;;;;5073713;28;19904;-65
2022/10/11 01:05:45;;;;;;;;;;;16.50;99.90;;;;;;5072537;28;19904;-65
2022/10/11 01:08:11;;;;;;;;;;;16.60;99.90;;;;;;5073756;28;19916;-64
2022/10/11 01:10:37;;;;;;;;;;;16.60;99.90;;;;;;5073491;28;19905;-65
2022/10/11 01:13:08;;;;;;;;;;;16.50;99.90;;;;;;5073216;28;19970;-65
2022/10/11 01:15:35;;;;;;;;;;;16.50;99.90;;;;;;5073173;28;19908;-65
2022/10/11 01:18:11;;;;;;;;;;;16.50;99.90;;;;;;5073154;28;20496;-65
2022/10/11 01:20:57;;;;;;;;;;;16.40;99.90;;;;;;5073442;28;19995;-65
2022/10/11 01:23:46;;;;;;;;;;;16.40;99.90;;;;;;5073228;28;20386;-64
2022/10/11 01:26:30;;;;;;;;;;;16.50;99.90;;;;;;5064894;28;20041;-65
2022/10/11 01:29:02;;;;;;;;;;;16.50;99.90;;;;;;5072852;28;19915;-65
2022/10/11 01:31:32;;;;;;;;;;;16.40;99.90;;;;;;5073040;28;19954;-65
2022/10/11 01:34:15;;;;;;;;;;;16.40;99.90;;;;;;5073319;28;19995;-65
2022/10/11 01:36:47;;;;;;;;;;;16.50;99.90;;;;;;5073006;28;19904;-65
2022/10/11 01:39:20;;;;;;;;;;;16.50;99.90;;;;;;5072958;28;19939;-65
2022/10/11 01:41:47;;;;;;;;;;;16.50;99.90;;;;;;5073335;28;19908;-64
2022/10/11 01:44:13;;;;;;;;;;;16.50;99.90;;;;;;5072355;28;19905;-65
2022/10/11 01:46:39;;;;;;;;;;;16.50;99.90;;;;;;5072960;28;19904;-65
2022/10/11 01:49:05;;;;;;;;;;;16.50;99.90;;;;;;5072993;28;19916;-65
2022/10/11 01:51:33;;;;;;;;;;;16.50;99.90;;;;;;5072729;28;20279;-65
2022/10/11 01:54:19;;;;;;;;;;;16.40;99.90;;;;;;5072675;28;20378;-65
2022/10/11 01:56:50;;;;;;;;;;;16.40;99.90;;;;;;5058251;28;19915;-65
2022/10/11 01:59:34;;;;;;;;;;;16.40;99.90;;;;;;5072821;28;20286;-65
2022/10/11 02:02:02;;;;;;;;;;;16.40;99.90;;;;;;5072525;28;19919;-65
2022/10/11 02:04:48;;;;;;;;;;;16.40;99.90;;;;;;5072812;28;19908;-65
2022/10/11 02:07:20;;;;;;;;;;;16.40;99.90;;;;;;5072137;28;19928;-65
2022/10/11 02:09:45;;;;;;;;;;;16.30;99.90;;;;;;5072514;28;19904;-65
2022/10/11 02:12:14;;;;;;;;;;;16.30;99.90;;;;;;5072060;28;19961;-65
2022/10/11 02:14:44;;;;;;;;;;;16.30;99.90;;;;;;5072927;28;19905;-65
2022/10/11 02:17:13;;;;;;;;;;;16.30;99.90;;;;;;5072225;28;20351;-65
2022/10/11 02:19:43;;;;;;;;;;;16.30;99.90;;;;;;5072769;28;19920;-65
2022/10/11 02:22:13;;;;;;;;;;;16.30;99.90;;;;;;5072394;28;19908;-65
2022/10/11 02:24:40;;;;;;;;;;;16.30;99.90;;;;;;5070555;28;19905;-65
2022/10/11 02:27:06;;;;;;;;;;;16.30;99.90;;;;;;5071795;28;19909;-65
2022/10/11 02:29:34;;;;;;;;;;;16.30;99.90;;;;;;5072370;28;19905;-65
2022/10/11 02:32:00;;;;;;;;;;;16.30;99.90;;;;;;5072173;28;20345;-65
2022/10/11 02:34:40;;;;;;;;;;;16.30;99.90;;;;;;5072428;28;19934;-66
2022/10/11 02:37:08;;;;;;;;;;;16.30;99.90;;;;;;5072313;28;19940;-65
2022/10/11 02:39:44;;;;;;;;;;;16.30;99.90;;;;;;5072100;28;19916;-65
2022/10/11 02:42:16;;;;;;;;;;;16.30;99.90;;;;;;5072251;28;19929;-65
2022/10/11 02:44:43;;;;;;;;;;;16.20;99.90;;;;;;5072044;28;19999;-65
2022/10/11 02:47:08;;;;;;;;;;;16.20;99.90;;;;;;5072353;28;19916;-64
2022/10/11 02:49:34;;;;;;;;;;;16.20;99.90;;;;;;5072152;28;19950;-65
2022/10/11 02:52:02;;;;;;;;;;;16.10;99.90;;;;;;5072490;28;20389;-65
2022/10/11 02:54:28;;;;;;;;;;;16.20;99.90;;;;;;5072203;28;19904;-65
2022/10/11 02:56:53;;;;;;;;;;;16.20;99.90;;;;;;5071856;28;19991;-65
2022/10/11 02:59:19;;;;;;;;;;;16.20;99.90;;;;;;5072012;28;19926;-64
2022/10/11 03:01:44;;;;;;;;;;;16.20;99.90;;;;;;5072409;28;19904;-64
2022/10/11 03:04:10;;;;;;;;;;;16.10;99.90;;;;;;5072030;28;19940;-65
2022/10/11 03:06:35;;;;;;;;;;;16.10;99.90;;;;;;5072079;28;20386;-64
2022/10/11 03:09:01;;;;;;;;;;;16.10;99.90;;;;;;5071890;28;20258;-65
2022/10/11 03:11:26;;;;;;;;;;;16.10;99.90;;;;;;5071485;28;20007;-64
2022/10/11 03:13:52;;;;;;;;;;;16.10;99.90;;;;;;5072462;28;19954;-65
2022/10/11 03:16:18;;;;;;;;;;;16.10;99.90;;;;;;5071955;28;19905;-65
2022/10/11 03:18:43;;;;;;;;;;;16.10;99.90;;;;;;5071956;28;19959;-65
2022/10/11 03:21:09;;;;;;;;;;;16.00;99.90;;;;;;5071904;28;20355;-65
2022/10/11 03:23:35;;;;;;;;;;;16.00;99.90;;;;;;5071671;28;19967;-65
2022/10/11 03:26:00;;;;;;;;;;;16.00;99.90;;;;;;5071583;28;20345;-65
2022/10/11 03:28:26;;;;;;;;;;;16.00;99.90;;;;;;5072363;28;19995;-65
2022/10/11 03:30:51;;;;;;;;;;;16.10;99.90;;;;;;5071900;28;19911;-65
2022/10/11 03:33:17;;;;;;;;;;;16.00;99.90;;;;;;5071826;28;20374;-65
2022/10/11 03:35:44;;;;;;;;;;;16.00;99.90;;;;;;5071841;28;19904;-65
2022/10/11 03:38:13;;;;;;;;;;;16.00;99.90;;;;;;5075119;28;19946;-65
2022/10/11 03:40:40;;;;;;;;;;;16.00;99.90;;;;;;5075515;28;19904;-65
2022/10/11 03:43:05;;;;;;;;;;;15.90;99.90;;;;;;5075280;28;19904;-64
2022/10/11 03:45:31;;;;;;;;;;;15.90;99.90;;;;;;5075342;28;19916;-64
2022/10/11 03:47:56;;;;;;;;;;;15.90;99.90;;;;;;5075233;28;20370;-65
2022/10/11 03:50:23;;;;;;;;;;;15.90;99.90;;;;;;5075601;28;20278;-65
2022/10/11 03:52:49;;;;;;;;;;;15.90;99.90;;;;;;5074991;28;19908;-65
2022/10/11 03:55:14;;;;;;;;;;;16.00;99.90;;;;;;5074845;28;19974;-65
2022/10/11 03:57:40;;;;;;;;;;;16.00;99.90;;;;;;5075145;28;19999;-65
2022/10/11 04:00:06;;;;;;;;;;;16.00;99.90;;;;;;5074863;28;19912;-65
2022/10/11 04:02:31;;;;;;;;;;;16.00;99.90;;;;;;5074988;28;20291;-65
2022/10/11 04:04:57;;;;;;;;;;;15.90;99.90;;;;;;5075266;28;19904;-65
2022/10/11 04:07:23;;;;;;;;;;;16.00;99.90;;;;;;5074826;28;19912;-65
2022/10/11 04:09:48;;;;;;;;;;;16.00;99.90;;;;;;5074643;28;19951;-65
2022/10/11 04:12:14;;;;;;;;;;;16.00;99.90;;;;;;5074520;28;19911;-65
2022/10/11 04:14:39;;;;;;;;;;;16.00;99.90;;;;;;5075165;28;19905;-65
2022/10/11 04:17:05;;;;;;;;;;;15.90;99.90;;;;;;5074702;28;19912;-65
2022/10/11 04:19:30;;;;;;;;;;;15.90;99.90;;;;;;5074673;28;19912;-65
2022/10/11 04:21:56;;;;;;;;;;;15.90;99.90;;;;;;5074400;28;19905;-65
2022/10/11 04:24:22;;;;;;;;;;;15.90;99.90;;;;;;5074522;28;19954;-65
2022/10/11 04:26:47;;;;;;;;;;;15.90;99.90;;;;;;5074534;28;20239;-65
2022/10/11 04:29:13;;;;;;;;;;;15.90;99.90;;;;;;5074594;28;19904;-65
2022/10/11 04:31:38;;;;;;;;;;;16.00;99.90;;;;;;5074425;28;19947;-65
2022/10/11 04:34:04;;;;;;;;;;;15.90;99.90;;;;;;5074851;28;19908;-65
2022/10/11 04:36:31;;;;;;;;;;;15.90;99.90;;;;;;5074270;28;19999;-65
2022/10/11 04:38:57;;;;;;;;;;;15.90;99.90;;;;;;5074236;28;20515;-65
2022/10/11 04:41:23;;;;;;;;;;;15.90;99.90;;;;;;5074387;28;19940;-65
2022/10/11 04:43:48;;;;;;;;;;;15.90;99.90;;;;;;5074167;28;20275;-65
2022/10/11 04:46:14;;;;;;;;;;;15.90;99.90;;;;;;5073941;28;19946;-65
2022/10/11 04:48:39;;;;;;;;;;;15.90;99.90;;;;;;5073134;28;19908;-65
2022/10/11 04:51:05;;;;;;;;;;;15.90;99.90;;;;;;5074104;28;19999;-66
2022/10/11 04:53:30;;;;;;;;;;;15.90;99.90;;;;;;5074142;28;20348;-65
2022/10/11 04:55:56;;;;;;;;;;;15.90;99.90;;;;;;5074064;28;19904;-64
2022/10/11 04:58:22;;;;;;;;;;;15.90;99.90;;;;;;5073766;28;20003;-65
2022/10/11 05:00:47;;;;;;;;;;;15.90;99.90;;;;;;5074003;28;19905;-65
2022/10/11 05:03:13;;;;;;;;;;;15.90;99.90;;;;;;5073900;28;19904;-65
2022/10/11 05:05:39;;;;;;;;;;;15.90;99.90;;;;;;5073675;28;19950;-65
2022/10/11 05:08:04;;;;;;;;;;;15.90;99.90;;;;;;5073372;28;19994;-64
2022/10/11 05:10:30;;;;;;;;;;;15.90;99.90;;;;;;5073931;28;19915;-65
2022/10/11 05:12:55;;;;;;;;;;;15.80;99.90;;;;;;5073567;28;19911;-65
2022/10/11 05:15:21;;;;;;;;;;;15.80;99.90;;;;;;5073644;28;19949;-65
2022/10/11 05:17:46;;;;;;;;;;;15.80;99.90;;;;;;5073325;28;19916;-65
2022/10/11 05:20:12;;;;;;;;;;;15.80;99.90;;;;;;5073409;28;20517;-65
2022/10/11 05:22:37;;;;;;;;;;;15.70;99.90;;;;;;5073359;28;19904;-65
2022/10/11 05:25:03;;;;;;;;;;;15.70;99.90;;;;;;5073329;28;20024;-65
2022/10/11 05:27:28;;;;;;;;;;;15.70;99.90;;;;;;5073730;28;19908;-65
2022/10/11 05:29:54;;;;;;;;;;;15.80;99.90;;;;;;5073273;28;19949;-65
2022/10/11 05:32:20;;;;;;;;;;;15.70;99.90;;;;;;5073163;28;19958;-65
2022/10/11 05:34:45;;;;;;;;;;;15.70;99.90;;;;;;5072336;28;19991;-62
2022/10/11 05:37:11;;;;;;;;;;;15.70;99.90;;;;;;5073055;28;20327;-64
2022/10/11 05:39:36;;;;;;;;;;;15.60;99.90;;;;;;5073034;28;19938;-62
2022/10/11 05:42:02;;;;;;;;;;;15.60;99.90;;;;;;5072672;28;19908;-64
2022/10/11 05:44:27;;;;;;;;;;;15.70;99.90;;;;;;5073096;28;19947;-63
2022/10/11 05:46:53;;;;;;;;;;;15.70;99.90;;;;;;5072716;28;19915;-63
2022/10/11 05:49:18;;;;;;;;;;;15.70;99.90;;;;;;5072783;28;20007;-63
2022/10/11 05:51:44;;;;;;;;;;;15.70;99.90;;;;;;5072923;28;19912;-63
2022/10/11 05:54:09;;;;;;;;;;;15.70;99.90;;;;;;5072768;28;19904;-63
2022/10/11 05:56:35;;;;;;;;;;;15.70;99.90;;;;;;5072860;28;20290;-63
2022/10/11 05:59:01;;;;;;;;;;;15.70;99.90;;;;;;5072445;28;19925;-63
2022/10/11 06:01:26;;;;;;;;;;;15.60;99.90;;;;;;5072307;28;19916;-63
2022/10/11 06:03:52;;;;;;;;;;;15.60;99.90;;;;;;5072825;28;19926;-63
2022/10/11 06:06:18;;;;;;;;;;;15.70;99.90;;;;;;5072662;28;20299;-63
2022/10/11 06:08:44;;;;;;;;;;;15.60;99.90;;;;;;5072602;28;19939;-63
2022/10/11 06:11:10;;;;;;;;;;;15.70;99.90;;;;;;5072411;28;19911;-63
2022/10/11 06:13:36;;;;;;;;;;;15.70;99.90;;;;;;5072511;28;19913;-63
2022/10/11 06:16:05;;;;;;;;;;;15.70;99.90;;;;;;5072371;28;20314;-64
2022/10/11 06:18:31;;;;;;;;;;;15.80;99.90;;;;;;5072419;28;19916;-63
2022/10/11 06:20:57;;;;;;;;;;;15.80;99.90;;;;;;5072315;28;19940;-63
2022/10/11 06:23:23;;;;;;;;;;;15.70;99.90;;;;;;5072571;28;20006;-63
2022/10/11 06:25:58;;;;;;;;;;;15.70;99.90;;;;;;5072646;28;19950;-63
2022/10/11 06:28:25;;;;;;;;;;;15.60;99.90;;;;;;5072476;28;19905;-63
2022/10/11 06:30:50;;;;;;;;;;;15.70;99.90;;;;;;5072390;28;20282;-63
2022/10/11 06:33:16;;;;;;;;;;;15.70;99.90;;;;;;5072377;28;19904;-63
2022/10/11 06:35:41;;;;;;;;;;;15.70;99.90;;;;;;5072337;28;19908;-63
2022/10/11 06:38:07;;;;;;;;;;;15.80;99.90;;;;;;5072179;28;19904;-62
2022/10/11 06:40:32;;;;;;;;;;;15.80;99.90;;;;;;5072384;28;20365;-63
2022/10/11 06:42:58;;;;;;;;;;;15.80;99.90;;;;;;5072155;28;20293;-63
2022/10/11 06:45:23;;;;;;;;;;;15.80;99.90;;;;;;5072353;28;20318;-63
2022/10/11 06:47:49;;;;;;;;;;;15.80;99.90;;;;;;5071920;28;19904;-63
2022/10/11 06:50:14;;;;;;;;;;;15.80;99.90;;;;;;5072102;28;20002;-63
2022/10/11 06:52:40;;;;;;;;;;;15.80;99.90;;;;;;5072440;28;19911;-63
2022/10/11 06:55:06;;;;;;;;;;;15.80;99.90;;;;;;5072021;28;19905;-63
2022/10/11 06:57:31;;;;;;;;;;;15.90;99.90;;;;;;5071919;28;19910;-63
2022/10/11 06:59:57;;;;;;;;;;;15.90;99.90;;;;;;5072205;28;20010;-63
2022/10/11 07:02:22;;;;;;;;;;;15.90;99.90;;;;;;5071708;28;19909;-63
2022/10/11 07:04:48;;;;;;;;;;;15.90;99.90;;;;;;5072095;28;19934;-63
2022/10/11 07:07:13;;;;;;;;;;;15.90;99.90;;;;;;5072022;28;20000;-63
2022/10/11 07:09:39;;;;;;;;;;;15.90;99.90;;;;;;5072177;28;19905;-63
2022/10/11 07:12:05;;;;;;;;;;;15.90;99.90;;;;;;5074088;28;19940;-63
2022/10/11 07:14:30;;;;;;;;;;;15.90;99.90;;;;;;5076083;28;19912;-63
2022/10/11 07:16:56;;;;;;;;;;;16.00;99.90;;;;;;5075286;28;19957;-63
2022/10/11 07:19:22;;;;;;;;;;;15.90;99.90;;;;;;5076039;28;20378;-63
2022/10/11 07:21:47;;;;;;;;;;;15.90;99.90;;;;;;5075830;28;19912;-63
2022/10/11 07:24:13;;;;;;;;;;;16.00;99.90;;;;;;5075998;28;19919;-63
2022/10/11 07:26:39;;;;;;;;;;;15.90;99.90;;;;;;5075582;28;19905;-61
2022/10/11 07:29:05;;;;;;;;;;;16.00;99.90;;;;;;5074277;28;19912;-61
2022/10/11 07:31:30;;;;;;;;;;;16.00;99.90;;;;;;5075449;28;19912;-61
2022/10/11 07:33:56;;;;;;;;;;;16.10;99.90;;;;;;5075521;28;19908;-62
2022/10/11 07:36:22;;;;;;;;;;;16.10;99.90;;;;;;5075948;28;19911;-63
2022/10/11 07:38:49;;;;;;;;;;;16.10;99.90;;;;;;5075306;28;20016;-63
2022/10/11 07:41:15;;;;;;;;;;;16.20;99.90;;;;;;5075270;28;19904;-62
2022/10/11 07:43:42;;;;;;;;;;;16.20;99.90;;;;;;5075496;28;19942;-62
2022/10/11 07:46:07;;;;;;;;;;;16.20;99.90;;;;;;5074968;28;19909;-62
2022/10/11 07:48:34;;;;;;;;;;;16.10;99.90;;;;;;5075409;28;20294;-62
2022/10/11 07:51:07;;;;;;;;;;;16.10;99.90;;;;;;5075441;28;19933;-63
2022/10/11 07:53:54;;;;;;;;;;;16.10;99.90;;;;;;5074879;28;19966;-62
2022/10/11 07:56:21;;;;;;;;;;;16.00;99.90;;;;;;5074973;28;19955;-63
2022/10/11 07:58:50;;;;;;;;;;;16.10;99.90;;;;;;5075103;28;19912;-60
2022/10/11 08:01:16;;;;;;;;;;;16.20;99.90;;;;;;5074426;28;19934;-63
2022/10/11 08:03:41;;;;;;;;;;;16.30;99.90;;;;;;5074951;28;19904;-67
2022/10/11 08:06:08;;;;;;;;;;;16.40;99.90;;;;;;5074099;28;19927;-61
2022/10/11 08:08:33;;;;;;;;;;;16.40;99.90;;;;;;5074460;28;19995;-61
2022/10/11 08:10:59;;;;;;;;;;;16.40;99.90;;;;;;5074666;28;19995;-62
2022/10/11 08:13:25;;;;;;;;;;;16.40;99.90;;;;;;5074288;28;19927;-63
2022/10/11 08:15:51;;;;;;;;;;;16.50;99.90;;;;;;5074838;28;19915;-63
2022/10/11 08:18:16;;;;;;;;;;;16.60;99.90;;;;;;5074437;28;19924;-64
2022/10/11 08:20:42;;;;;;;;;;;16.50;99.90;;;;;;5074173;28;19908;-64
2022/10/11 08:23:08;;;;;;;;;;;16.60;99.90;;;;;;5073394;28;19904;-63
2022/10/11 08:25:38;;;;;;;;;;;16.60;99.90;;;;;;5074460;28;20290;-62
2022/10/11 08:28:03;;;;;;;;;;;16.80;99.90;;;;;;5074499;28;19908;-64
2022/10/11 08:30:29;;;;;;;;;;;16.90;99.90;;;;;;5074615;28;19945;-62
2022/10/11 08:32:54;;;;;;;;;;;17.00;99.90;;;;;;5074382;28;20018;-62
2022/10/11 08:35:20;;;;;;;;;;;17.00;99.90;;;;;;5074293;28;19958;-63
2022/10/11 08:37:45;;;;;;;;;;;17.10;99.90;;;;;;5074239;28;19908;-63
2022/10/11 08:40:14;;;;;;;;;;;17.10;99.90;;;;;;5074271;28;20463;-63
2022/10/11 08:42:44;;;;;;;;;;;17.10;99.90;;;;;;5074432;28;19905;-62
2022/10/11 08:45:19;;;;;;;;;;;17.30;99.90;;;;;;5073601;28;20003;-63
2022/10/11 08:47:46;;;;;;;;;;;17.30;99.90;;;;;;5073923;28;19905;-62
2022/10/11 08:50:16;;;;;;;;;;;17.10;99.90;;;;;;5074451;28;19914;-62
2022/10/11 08:52:45;;;;;;;;;;;17.10;99.90;;;;;;5074204;28;19948;-62
2022/10/11 08:55:31;;;;;;;;;;;17.10;99.90;;;;;;5074302;28;20298;-63
2022/10/11 08:57:57;;;;;;;;;;;17.20;99.90;;;;;;5073272;28;20003;-63
2022/10/11 09:00:23;;;;;;;;;;;17.10;99.90;;;;;;5073102;28;20336;-64
2022/10/11 09:02:49;;;;;;;;;;;17.20;99.90;;;;;;5073386;28;19904;-64
2022/10/11 09:05:16;;;;;;;;;;;17.20;99.90;;;;;;5074075;28;19905;-64
2022/10/11 09:07:41;;;;;;;;;;;17.20;99.90;;;;;;5072488;28;20320;-64
2022/10/11 09:10:34;;;;;;;;;;;17.20;99.90;;;;;;5073630;28;19904;-64
2022/10/11 09:13:00;;;;;;;;;;;17.20;99.90;;;;;;5053141;28;20228;-64
2022/10/11 09:15:25;;;;;;;;;;;17.30;99.90;;;;;;5053594;28;19904;-63
2022/10/11 09:18:02;;;;;;;;;;;17.30;99.90;;;;;;5053204;28;19916;-64
2022/10/11 09:20:42;;;;;;;;;;;17.30;99.90;;;;;;5053351;28;20110;-64
2022/10/11 09:23:08;;;;;;;;;;;17.40;99.90;;;;;;5053511;28;19905;-65
2022/10/11 09:25:37;;;;;;;;;;;17.40;99.90;;;;;;5053797;28;19927;-64
2022/10/11 09:28:12;;;;;;;;;;;17.30;99.90;;;;;;5053240;28;19912;-64
2022/10/11 09:30:46;;;;;;;;;;;17.30;99.90;;;;;;5053285;28;20295;-64
2022/10/11 09:33:19;;;;;;;;;;;17.30;99.90;;;;;;5053386;28;19954;-64
2022/10/11 09:35:48;;;;;;;;;;;17.30;99.90;;;;;;5052807;28;19905;-64
2022/10/11 09:38:33;;;;;;;;;;;17.30;99.90;;;;;;5053017;28;19934;-63
2022/10/11 09:41:05;;;;;;;;;;;17.20;99.90;;;;;;5052519;28;19908;-64
2022/10/11 09:43:31;;;;;;;;;;;17.20;99.90;;;;;;5053090;28;19904;-64
2022/10/11 09:45:57;;;;;;;;;;;17.20;99.90;;;;;;5065775;28;19908;-63
2022/10/11 09:48:26;;;;;;;;;;;17.20;99.90;;;;;;5073259;28;19994;-64
2022/10/11 09:50:53;;;;;;;;;;;17.20;99.90;;;;;;5073182;28;20386;-64
2022/10/11 09:53:20;;;;;;;;;;;17.20;99.90;;;;;;5072657;28;20375;-64
2022/10/11 09:55:51;;;;;;;;;;;17.20;99.90;;;;;;5072630;28;19912;-63
2022/10/11 09:58:32;;;;;;;;;;;17.20;99.90;;;;;;5072565;28;19905;-64
2022/10/11 10:01:08;;;;;;;;;;;17.30;99.90;;;;;;5072869;28;19934;-64
2022/10/11 10:03:39;;;;;;;;;;;17.30;99.90;;;;;;5073429;28;19905;-64
2022/10/11 10:06:21;;;;;;;;;;;17.30;99.90;;;;;;5072770;28;19904;-64
2022/10/11 10:08:47;;;;;;;;;;;17.30;99.90;;;;;;5072539;28;19904;-64
2022/10/11 10:11:13;;;;;;;;;;;17.40;99.90;;;;;;5072282;28;20450;-64
2022/10/11 10:13:52;;;;;;;;;;;17.50;99.90;;;;;;5072513;28;19905;-65
2022/10/11 10:16:28;;;;;;;;;;;17.50;99.90;;;;;;5072919;28;20278;-63
2022/10/11 10:19:02;;;;;;;;;;;17.50;99.90;;;;;;5072430;28;20402;-62
2022/10/11 10:21:29;;;;;;;;;;;17.50;99.90;;;;;;5072675;28;19927;-61
2022/10/11 10:23:56;;;;;;;;;;;17.60;99.90;;;;;;5072585;28;19904;-62
2022/10/11 10:26:24;;;;;;;;;;;17.70;99.90;;;;;;5071658;28;20003;-63
2022/10/11 10:29:14;;;;;;;;;;;17.60;99.90;;;;;;5071995;28;19905;-64
2022/10/11 10:31:47;;;;;;;;;;;17.70;99.90;;;;;;5065134;28;19957;-64
2022/10/11 10:34:34;;;;;;;;;;;17.80;99.90;;;;;;5072334;28;19963;-63
2022/10/11 10:37:07;;;;;;;;;;;17.80;99.90;;;;;;5071547;28;20277;-62
2022/10/11 10:39:56;;;;;;;;;;;17.70;99.90;;;;;;5071488;28;20347;-63
2022/10/11 10:42:22;;;;;;;;;;;17.70;99.90;;;;;;5064082;28;19904;-63
2022/10/11 10:44:51;;;;;;;;;;;17.80;99.90;;;;;;5072201;28;20370;-63
2022/10/11 10:47:18;;;;;;;;;;;17.80;99.90;;;;;;5071591;28;19945;-63
2022/10/11 10:49:47;;;;;;;;;;;17.70;99.90;;;;;;5072640;28;20321;-64
2022/10/11 10:52:31;;;;;;;;;;;17.80;99.90;;;;;;5071966;28;19967;-64
2022/10/11 10:55:00;;;;;;;;;;;17.90;99.90;;;;;;5070758;28;19979;-63
2022/10/11 10:57:26;;;;;;;;;;;17.80;99.90;;;;;;5072422;28;19904;-64
2022/10/11 11:00:10;;;;;;;;;;;17.90;99.90;;;;;;5072283;28;19912;-64
2022/10/11 11:02:36;;;;;;;;;;;17.90;99.90;;;;;;5072095;28;19991;-64
2022/10/11 11:05:04;;;;;;;;;;;18.00;99.90;;;;;;5072062;28;20003;-63
2022/10/11 11:07:39;;;;;;;;;;;18.00;99.90;;;;;;5070730;28;20271;-64
2022/10/11 11:10:10;;;;;;;;;;;17.90;99.90;;;;;;5071860;28;19908;-64
2022/10/11 11:12:47;;;;;;;;;;;18.00;99.90;;;;;;5072269;28;19987;-64
2022/10/11 11:15:23;;;;;;;;;;;18.00;99.90;;;;;;5072056;28;20293;-64
2022/10/11 11:17:49;;;;;;;;;;;18.00;99.90;;;;;;5071938;28;20371;-63
2022/10/11 11:20:23;;;;;;;;;;;18.00;99.90;;;;;;5071776;28;19916;-64
2022/10/11 11:22:49;;;;;;;;;;;18.00;99.90;;;;;;5071987;28;19980;-64
2022/10/11 11:25:14;;;;;;;;;;;18.00;99.90;;;;;;5071849;28;20381;-63
2022/10/11 11:28:01;;;;;;;;;;;17.90;99.90;;;;;;5071989;28;20007;-64
2022/10/11 11:30:42;;;;;;;;;;;17.90;99.90;;;;;;5072041;28;19905;-64
2022/10/11 11:33:28;;;;;;;;;;;17.80;99.90;;;;;;5071797;28;19911;-62
2022/10/11 11:35:55;;;;;;;;;;;17.70;99.90;;;;;;5071722;28;19904;-62
2022/10/11 11:38:30;;;;;;;;;;;17.80;99.90;;;;;;5071637;28;19905;-62
2022/10/11 11:41:01;;;;;;;;;;;17.80;99.90;;;;;;5071595;28;19908;-62
2022/10/11 11:43:32;;;;;;;;;;;17.70;99.90;;;;;;5071640;28;20367;-62
2022/10/11 11:46:03;;;;;;;;;;;17.50;99.90;;;;;;5071526;28;19995;-62
2022/10/11 11:48:29;;;;;;;;;;;17.30;99.90;;;;;;5071672;28;19957;-62
2022/10/11 11:50:54;;;;;;;;;;;17.30;99.90;;;;;;5071361;28;19958;-63
2022/10/11 11:53:23;;;;;;;;;;;17.30;99.90;;;;;;5071189;28;20385;-63
2022/10/11 11:56:24;;;;;;;;;;;17.40;99.90;;;;;;5070171;28;20400;-63
2022/10/11 11:58:49;;;;;;;;;;;17.40;99.90;;;;;;5074466;28;19935;-63
2022/10/11 12:01:33;;;;;;;;;;;17.60;99.90;;;;;;5075258;28;20255;-63
2022/10/11 12:04:04;;;;;;;;;;;17.60;99.90;;;;;;5074829;28;19911;-63
2022/10/11 12:06:31;;;;;;;;;;;17.60;99.90;;;;;;5074720;28;19930;-62
2022/10/11 12:09:03;;;;;;;;;;;17.60;99.90;;;;;;5075278;28;19915;-62
2022/10/11 12:11:39;;;;;;;;;;;17.70;99.90;;;;;;5074910;28;19904;-63
2022/10/11 12:14:16;;;;;;;;;;;17.60;99.90;;;;;;5074857;28;20003;-63
2022/10/11 12:17:00;;;;;;;;;;;17.70;99.90;;;;;;5074920;28;19905;-62
2022/10/11 12:19:26;;;;;;;;;;;17.80;99.90;;;;;;5074717;28;20396;-63
2022/10/11 12:22:11;;;;;;;;;;;17.80;99.90;;;;;;5074878;28;20046;-62
2022/10/11 12:24:55;;;;;;;;;;;17.80;99.90;;;;;;5074759;28;19904;-63
2022/10/11 12:27:39;;;;;;;;;;;17.80;99.90;;;;;;5074607;28;20007;-63
2022/10/11 12:30:23;;;;;;;;;;;17.80;99.90;;;;;;5074646;28;19904;-63
2022/10/11 12:32:49;;;;;;;;;;;17.80;99.90;;;;;;5074520;28;20319;-63
2022/10/11 12:35:47;;;;;;;;;;;17.80;99.90;;;;;;5074151;28;19936;-63
2022/10/11 12:38:13;;;;;;;;;;;17.70;99.90;;;;;;5012413;28;19960;-62
2022/10/11 12:40:42;;;;;;;;;;;17.70;99.90;;;;;;4995939;28;20368;-63
2022/10/11 12:43:13;;;;;;;;;;;17.70;99.90;;;;;;5012654;28;19909;-63
2022/10/11 12:45:40;;;;;;;;;;;17.80;99.90;;;;;;5012283;28;20291;-62
2022/10/11 12:48:24;;;;;;;;;;;17.90;99.90;;;;;;5012485;28;20459;-63
2022/10/11 12:51:08;;;;;;;;;;;18.00;99.90;;;;;;5012410;28;19906;-63
2022/10/11 12:53:48;;;;;;;;;;;17.90;99.90;;;;;;5012212;28;19909;-63
2022/10/11 12:56:20;;;;;;;;;;;18.00;99.90;;;;;;5012391;28;19905;-63
2022/10/11 12:58:47;;;;;;;;;;;18.00;99.90;;;;;;5012244;28;19909;-63
2022/10/11 13:01:17;;;;;;;;;;;17.90;99.90;;;;;;5012246;28;20356;-63
2022/10/11 13:03:57;;;;;;;;;;;17.90;99.90;;;;;;5012056;28;20360;-62
2022/10/11 13:06:25;;;;;;;;;;;17.90;99.90;;;;;;4995434;28;19906;-62
2022/10/11 13:09:14;;;;;;;;;;;17.80;99.90;;;;;;5011235;28;19928;-63
2022/10/11 13:11:46;;;;;;;;;;;17.80;99.90;;;;;;5004154;28;20000;-63
2022/10/11 13:14:17;;;;;;;;;;;17.80;99.90;;;;;;5040246;28;20448;-63
2022/10/11 13:17:03;;;;;;;;;;;17.80;99.90;;;;;;5053648;28;19909;-63
2022/10/11 13:19:30;;;;;;;;;;;17.70;99.90;;;;;;5042556;28;19916;-63
2022/10/11 13:21:57;;;;;;;;;;;17.80;99.90;;;;;;5053634;28;20338;-63
2022/10/11 13:24:24;;;;;;;;;;;17.90;99.90;;;;;;5054092;28;19915;-63
2022/10/11 13:26:50;;;;;;;;;;;17.90;99.90;;;;;;5053704;28;19908;-63
2022/10/11 13:29:36;;;;;;;;;;;17.80;99.90;;;;;;5053603;28;19905;-63
2022/10/11 13:32:09;;;;;;;;;;;17.80;99.90;;;;;;5053045;28;20257;-63
2022/10/11 13:34:39;;;;;;;;;;;17.80;99.90;;;;;;5053503;28;19913;-62
2022/10/11 13:37:05;;;;;;;;;;;17.80;99.90;;;;;;5053130;28;19943;-63
2022/10/11 13:39:35;;;;;;;;;;;17.70;99.90;;;;;;5053043;28;19912;-63
2022/10/11 13:42:02;;;;;;;;;;;17.60;99.90;;;;;;5053045;28;19911;-63
2022/10/11 13:44:31;;;;;;;;;;;17.60;99.90;;;;;;5054148;28;19996;-63
2022/10/11 13:46:56;;;;;;;;;;;17.60;99.90;;;;;;5073011;28;20312;-63
2022/10/11 13:49:36;;;;;;;;;;;17.50;99.90;;;;;;5072922;28;19904;-63
2022/10/11 13:52:03;;;;;;;;;;;17.50;99.90;;;;;;5073169;28;19905;-63
2022/10/11 13:54:47;;;;;;;;;;;17.50;99.90;;;;;;5072942;28;20363;-63
2022/10/11 13:57:13;;;;;;;;;;;17.50;99.90;;;;;;5073283;28;19908;-63
2022/10/11 13:59:41;;;;;;;;;;;17.60;99.90;;;;;;5072969;28;20023;-63
2022/10/11 14:02:15;;;;;;;;;;;17.70;99.90;;;;;;5072398;28;19926;-62
2022/10/11 14:04:40;;;;;;;;;;;17.90;99.90;;;;;;5072788;28;20282;-63
2022/10/11 14:07:16;;;;;;;;;;;17.90;99.90;;;;;;5073016;28;19991;-63
2022/10/11 14:09:45;;;;;;;;;;;18.00;99.90;;;;;;5073274;28;19951;-63
2022/10/11 14:12:26;;;;;;;;;;;18.00;99.90;;;;;;5072676;28;20475;-63
2022/10/11 14:14:52;;;;;;;;;;;18.00;99.90;;;;;;5072641;28;19915;-63
2022/10/11 14:17:23;;;;;;;;;;;18.00;99.90;;;;;;5072202;28;19912;-63
2022/10/11 14:20:07;;;;;;;;;;;18.10;99.90;;;;;;5072894;28;20102;-63
2022/10/11 14:22:32;;;;;;;;;;;18.20;99.90;;;;;;5073033;28;19915;-63
2022/10/11 14:24:58;;;;;;;;;;;18.10;99.90;;;;;;5072701;28;19905;-63
2022/10/11 14:27:25;;;;;;;;;;;18.20;99.90;;;;;;5072721;28;19946;-63
2022/10/11 14:29:51;;;;;;;;;;;18.20;99.90;;;;;;5072705;28;19912;-63